Cartouche — 9HB5619 — position and weather

sailwx.info

Track history (hours):
 
Tides and Currents Weather Stations Pressure Air Temp Water Temp Dewpoint Dewpoint Depression Visibility Wind Speed Wind Dir Waves Ship Positions

Cartouche

Last reported at 2018-Jul-21 03:30 UTC. Time now 2018-Jul-21 03:37 UTC.
Position N 38°55' E 001°26'.

Length 22 m; draft 2.5 m.

Type: Ship. MMSI: 248318000.

Date/timePositionNaut miles runAvg speedWind from/ knotsBaromVisibWave heightAir tempDewpointWater temp
2018-Jul-21 03:30N 38°55' E 001°26'0 0.0
2018-Jul-21 02:55N 38°55' E 001°26'0 0.0
2018-Jul-21 02:23N 38°55' E 001°26'0 0.0
2018-Jul-21 01:52N 38°55' E 001°26'0 0.0
2018-Jul-21 01:05N 38°55' E 001°26'0 0.0
2018-Jul-21 00:52N 38°55' E 001°26'0 0.0
2018-Jul-21 00:27N 38°55' E 001°26'0 0.0
2018-Jul-21 00:00N 38°55' E 001°26'0 0.0
2018-Jul-20 23:29N 38°55' E 001°26'0 0.0
2018-Jul-20 23:00N 38°55' E 001°26'0 0.0
2018-Jul-20 22:27N 38°55' E 001°26'0 0.0
2018-Jul-20 21:57N 38°55' E 001°26'0 0.0
2018-Jul-20 21:23N 38°55' E 001°26'0 0.0
2018-Jul-20 21:00N 38°55' E 001°26'0 0.0
2018-Jul-20 20:28N 38°55' E 001°26'0 0.0
2018-Jul-20 19:57N 38°55' E 001°26'0 0.0
2018-Jul-20 19:14N 38°55' E 001°26'0 0.0
2018-Jul-20 19:00N 38°55' E 001°26'0 0.0
2018-Jul-20 18:20N 38°55' E 001°26'0 0.0
2018-Jul-20 17:59N 38°55' E 001°26'0 0.0
2018-Jul-20 17:28N 38°55' E 001°26'0 0.0
2018-Jul-20 16:53N 38°55' E 001°26'0 0.0
2018-Jul-20 16:28N 38°55' E 001°26'0 0.0
2018-Jul-20 15:56N 38°55' E 001°26'1 2.0
2018-Jul-20 15:27N 38°55' E 001°28'0 0.1
2018-Jul-20 14:55N 38°55' E 001°28'0 0.0
2018-Jul-20 14:27N 38°55' E 001°28'0 0.0
2018-Jul-20 13:57N 38°55' E 001°28'0 0.0
2018-Jul-20 13:27N 38°55' E 001°28'0 0.0
2018-Jul-20 12:58N 38°55' E 001°28'0 0.0
2018-Jul-20 12:28N 38°55' E 001°28'0 0.0
2018-Jul-20 12:00N 38°55' E 001°28'0 0.0
2018-Jul-20 11:27N 38°55' E 001°28'0 0.0
2018-Jul-20 10:44N 38°55' E 001°28'0 0.0
2018-Jul-20 10:30N 38°55' E 001°28'0 0.0
2018-Jul-20 09:58N 38°55' E 001°28'0 0.0
2018-Jul-20 09:26N 38°55' E 001°28'0 0.0
2018-Jul-20 08:55N 38°55' E 001°28'0 0.0
2018-Jul-20 08:29N 38°55' E 001°28'0 0.0
2018-Jul-20 07:57N 38°55' E 001°28'0 0.1
2018-Jul-20 07:28N 38°55' E 001°28'2 4.2
2018-Jul-20 06:58N 38°53' E 001°27'1 0.1
2018-Jul-19 15:34N 38°53' E 001°25'110.0
2018-Jul-19 15:30N 38°52' E 001°25'9 0.2
2018-Jul-17 18:03N 38°44' E 001°23'110.4
2018-Jul-17 18:00N 38°43' E 001°23'1 1.1
2018-Jul-17 16:39N 38°42' E 001°23'0 0.0
2018-Jul-17 16:26N 38°42' E 001°23'5 0.5
2018-Jul-17 05:43N 38°46' E 001°26'2 0.2
2018-Jul-16 14:15N 38°48' E 001°26'2 9.5
2018-Jul-16 14:00N 38°51' E 001°25'1 1.1
2018-Jul-16 13:25N 38°51' E 001°24'0 0.0
2018-Jul-16 13:00N 38°51' E 001°24'0 0.0
2018-Jul-16 12:30N 38°51' E 001°24'0 0.0
2018-Jul-16 12:00N 38°51' E 001°24'0 0.0
2018-Jul-16 11:28N 38°51' E 001°24'0 0.0
2018-Jul-16 10:56N 38°51' E 001°24'0 0.0
2018-Jul-16 10:26N 38°51' E 001°24'0 0.0
2018-Jul-16 09:58N 38°51' E 001°24'0 0.0
2018-Jul-16 09:27N 38°51' E 001°24'0 0.0
2018-Jul-16 08:58N 38°51' E 001°24'0 0.0
2018-Jul-16 08:25N 38°51' E 001°24'0 0.0
2018-Jul-16 07:58N 38°51' E 001°24'0 0.0
2018-Jul-16 07:28N 38°51' E 001°24'0 0.0
2018-Jul-16 07:00N 38°51' E 001°24'0 0.0
2018-Jul-16 06:30N 38°51' E 001°24'6 0.4
2018-Jul-15 14:21N 38°54' E 001°31'3 8.9
2018-Jul-15 14:00N 38°56' E 001°34'  
2018-Jul-11 12:07N 39°27' E 002°31'0 3.4
2018-Jul-11 12:00N 39°27' E 002°31'1 1.2
2018-Jul-11 11:29N 39°28' E 002°32'0 0.3
2018-Jul-11 10:58N 39°28' E 002°31'0 0.0
2018-Jul-11 10:30N 39°28' E 002°31'0 0.0
2018-Jul-11 10:00N 39°28' E 002°31'0 0.0
2018-Jul-11 09:27N 39°28' E 002°31'0 0.2
2018-Jul-11 09:00N 39°28' E 002°32'2 4.5
2018-Jul-11 08:30N 39°29' E 002°33'4 8.6
2018-Jul-11 08:00N 39°32' E 002°38'2 3.6
2018-Jul-11 07:30N 39°34' E 002°39'0 0.0
2018-Jul-11 07:00N 39°34' E 002°39'0 0.0
2018-Jul-11 06:29N 39°34' E 002°39'0 0.0
2018-Jul-11 05:59N 39°34' E 002°39'0 0.0
2018-Jul-11 05:27N 39°34' E 002°39'0 0.0
2018-Jul-11 04:53N 39°34' E 002°39'1 3.3
2018-Jul-11 04:30N 39°33' E 002°38'5 9.6
2018-Jul-11 04:00N 39°29' E 002°34'  
Track history (hours):
 
Tides and Currents Weather Stations Pressure Air Temp Water Temp Dewpoint Dewpoint Depression Visibility Wind Speed Wind Dir Waves Ship Positions

Cartouche

Last reported at 2018-Jul-21 03:30 UTC. Time now 2018-Jul-21 03:37 UTC.
Position N 38°55' E 001°26'.

Length 22 m; draft 2.5 m.

Type: Ship. MMSI: 248318000.

Date/timePositionNaut miles runAvg speedWind from/ knotsBaromVisibWave heightAir tempDewpointWater temp
2018-Jul-21 03:30N 38°55' E 001°26'0 0.0
2018-Jul-21 02:55N 38°55' E 001°26'0 0.0
2018-Jul-21 02:23N 38°55' E 001°26'0 0.0
2018-Jul-21 01:52N 38°55' E 001°26'0 0.0
2018-Jul-21 01:05N 38°55' E 001°26'0 0.0
2018-Jul-21 00:52N 38°55' E 001°26'0 0.0
2018-Jul-21 00:27N 38°55' E 001°26'0 0.0
2018-Jul-21 00:00N 38°55' E 001°26'0 0.0
2018-Jul-20 23:29N 38°55' E 001°26'0 0.0
2018-Jul-20 23:00N 38°55' E 001°26'0 0.0
2018-Jul-20 22:27N 38°55' E 001°26'0 0.0
2018-Jul-20 21:57N 38°55' E 001°26'0 0.0
2018-Jul-20 21:23N 38°55' E 001°26'0 0.0
2018-Jul-20 21:00N 38°55' E 001°26'0 0.0
2018-Jul-20 20:28N 38°55' E 001°26'0 0.0
2018-Jul-20 19:57N 38°55' E 001°26'0 0.0
2018-Jul-20 19:14N 38°55' E 001°26'0 0.0
2018-Jul-20 19:00N 38°55' E 001°26'0 0.0
2018-Jul-20 18:20N 38°55' E 001°26'0 0.0
2018-Jul-20 17:59N 38°55' E 001°26'0 0.0
2018-Jul-20 17:28N 38°55' E 001°26'0 0.0
2018-Jul-20 16:53N 38°55' E 001°26'0 0.0
2018-Jul-20 16:28N 38°55' E 001°26'0 0.0
2018-Jul-20 15:56N 38°55' E 001°26'1 2.0
2018-Jul-20 15:27N 38°55' E 001°28'0 0.1
2018-Jul-20 14:55N 38°55' E 001°28'0 0.0
2018-Jul-20 14:27N 38°55' E 001°28'0 0.0
2018-Jul-20 13:57N 38°55' E 001°28'0 0.0
2018-Jul-20 13:27N 38°55' E 001°28'0 0.0
2018-Jul-20 12:58N 38°55' E 001°28'0 0.0
2018-Jul-20 12:28N 38°55' E 001°28'0 0.0
2018-Jul-20 12:00N 38°55' E 001°28'0 0.0
2018-Jul-20 11:27N 38°55' E 001°28'0 0.0
2018-Jul-20 10:44N 38°55' E 001°28'0 0.0
2018-Jul-20 10:30N 38°55' E 001°28'0 0.0
2018-Jul-20 09:58N 38°55' E 001°28'0 0.0
2018-Jul-20 09:26N 38°55' E 001°28'0 0.0
2018-Jul-20 08:55N 38°55' E 001°28'0 0.0
2018-Jul-20 08:29N 38°55' E 001°28'0 0.0
2018-Jul-20 07:57N 38°55' E 001°28'0 0.1
2018-Jul-20 07:28N 38°55' E 001°28'2 4.2
2018-Jul-20 06:58N 38°53' E 001°27'1 0.1
2018-Jul-19 15:34N 38°53' E 001°25'110.0
2018-Jul-19 15:30N 38°52' E 001°25'9 0.2
2018-Jul-17 18:03N 38°44' E 001°23'110.4
2018-Jul-17 18:00N 38°43' E 001°23'1 1.1
2018-Jul-17 16:39N 38°42' E 001°23'0 0.0
2018-Jul-17 16:26N 38°42' E 001°23'5 0.5
2018-Jul-17 05:43N 38°46' E 001°26'2 0.2
2018-Jul-16 14:15N 38°48' E 001°26'2 9.5
2018-Jul-16 14:00N 38°51' E 001°25'1 1.1
2018-Jul-16 13:25N 38°51' E 001°24'0 0.0
2018-Jul-16 13:00N 38°51' E 001°24'0 0.0
2018-Jul-16 12:30N 38°51' E 001°24'0 0.0
2018-Jul-16 12:00N 38°51' E 001°24'0 0.0
2018-Jul-16 11:28N 38°51' E 001°24'0 0.0
2018-Jul-16 10:56N 38°51' E 001°24'0 0.0
2018-Jul-16 10:26N 38°51' E 001°24'0 0.0
2018-Jul-16 09:58N 38°51' E 001°24'0 0.0
2018-Jul-16 09:27N 38°51' E 001°24'0 0.0
2018-Jul-16 08:58N 38°51' E 001°24'0 0.0
2018-Jul-16 08:25N 38°51' E 001°24'0 0.0
2018-Jul-16 07:58N 38°51' E 001°24'0 0.0
2018-Jul-16 07:28N 38°51' E 001°24'0 0.0
2018-Jul-16 07:00N 38°51' E 001°24'0 0.0
2018-Jul-16 06:30N 38°51' E 001°24'6 0.4
2018-Jul-15 14:21N 38°54' E 001°31'3 8.9
2018-Jul-15 14:00N 38°56' E 001°34'  
2018-Jul-11 12:07N 39°27' E 002°31'0 3.4
2018-Jul-11 12:00N 39°27' E 002°31'1 1.2
2018-Jul-11 11:29N 39°28' E 002°32'0 0.3
2018-Jul-11 10:58N 39°28' E 002°31'0 0.0
2018-Jul-11 10:30N 39°28' E 002°31'0 0.0
2018-Jul-11 10:00N 39°28' E 002°31'0 0.0
2018-Jul-11 09:27N 39°28' E 002°31'0 0.2
2018-Jul-11 09:00N 39°28' E 002°32'2 4.5
2018-Jul-11 08:30N 39°29' E 002°33'4 8.6
2018-Jul-11 08:00N 39°32' E 002°38'2 3.6
2018-Jul-11 07:30N 39°34' E 002°39'0 0.0
2018-Jul-11 07:00N 39°34' E 002°39'0 0.0
2018-Jul-11 06:29N 39°34' E 002°39'0 0.0
2018-Jul-11 05:59N 39°34' E 002°39'0 0.0
2018-Jul-11 05:27N 39°34' E 002°39'0 0.0
2018-Jul-11 04:53N 39°34' E 002°39'1 3.3
2018-Jul-11 04:30N 39°33' E 002°38'5 9.6
2018-Jul-11 04:00N 39°29' E 002°34'  

Dump ship's entire track history